Wetterstation Vordersexau
Wetterdaten: Jahr 2023
Datum Temp. A. Feuchte A. Luftdruck Regen Wind Richtung Taupunkt Windchill Windben
01.01.2023 12,9 C 74 % 1016,5 hPa 0,0 l/m 3,2 km/h (1 Bft) S-SW 8,1 C 12,7 C 5,1 km/h (1 Bft)
02.01.2023 10,7 C 79 % 1017,5 hPa 1,2 l/m 4,1 km/h (1 Bft) SO 6,8 C 10,0 C 6,9 km/h (2 Bft)
03.01.2023 7,1 C 94 % 1025,7 hPa 0,0 l/m 0,4 km/h (0 Bft) O-SO 6,1 C 7,1 C 1,3 km/h (1 Bft)
04.01.2023 7,5 C 84 % 1024,0 hPa 0,3 l/m 9,2 km/h (2 Bft) SW 4,9 C 5,0 C 13,5 km/h (3 Bft)
05.01.2023 11,5 C 86 % 1020,8 hPa 0,0 l/m 8,7 km/h (2 Bft) W-SW 9,2 C 9,6 C 12,7 km/h (3 Bft)
06.01.2023 8,9 C 89 % 1019,2 hPa 0,0 l/m 2,0 km/h (1 Bft) W-SW 7,1 C 8,6 C 3,3 km/h (1 Bft)
07.01.2023 9,1 C 80 % 1012,5 hPa 0,0 l/m 2,7 km/h (1 Bft) SO 5,7 C 8,9 C 4,8 km/h (1 Bft)
08.01.2023 8,1 C 89 % 1003,1 hPa 10,5 l/m 3,8 km/h (1 Bft) SO 6,5 C 7,7 C 6,3 km/h (2 Bft)
09.01.2023 7,0 C 85 % 1002,7 hPa 3,3 l/m 10,6 km/h (2 Bft) W-SW 4,6 C 4,0 C 15,9 km/h (3 Bft)
10.01.2023 6,0 C 80 % 1017,6 hPa 3,0 l/m 6,3 km/h (2 Bft) W-SW 2,7 C 5,0 C 9,4 km/h (2 Bft)
11.01.2023 9,8 C 86 % 1014,9 hPa 3,0 l/m 9,8 km/h (2 Bft) W-SW 7,4 C 7,6 C 14,0 km/h (3 Bft)
12.01.2023 9,5 C 76 % 1016,2 hPa 0,0 l/m 13,9 km/h (3 Bft) SW 5,5 C 5,2 C 20,4 km/h (4 Bft)
13.01.2023 9,4 C 80 % 1013,4 hPa 1,5 l/m 11,5 km/h (2 Bft) SW 6,1 C 6,3 C 16,8 km/h (3 Bft)
14.01.2023 9,4 C 77 % 1012,5 hPa 6,0 l/m 8,1 km/h (2 Bft) SW 5,4 C 7,7 C 12,5 km/h (3 Bft)
15.01.2023 8,1 C 79 % 1005,2 hPa 10,2 l/m 11,0 km/h (2 Bft) W-SW 4,6 C 4,9 C 15,3 km/h (3 Bft)
16.01.2023 5,9 C 72 % 989,7 hPa 1,2 l/m 13,9 km/h (3 Bft) S-SO 1,0 C 1,2 C 21,1 km/h (4 Bft)
17.01.2023 2,6 C 87 % 983,7 hPa 1,2 l/m 3,1 km/h (1 Bft) SW 0,5 C 2,0 C 5,1 km/h (1 Bft)
18.01.2023 0,3 C 95 % 992,7 hPa 3,3 l/m 0,6 km/h (0 Bft) W -0,3 C 0,3 C 1,5 km/h (1 Bft)
19.01.2023 -0,8 C 91 % 1004,8 hPa 0,0 l/m 1,4 km/h (1 Bft) W-SW -2,1 C -0,8 C 2,6 km/h (1 Bft)
20.01.2023 -0,4 C 89 % 1012,0 hPa 0,0 l/m 1,3 km/h (1 Bft) W -1,9 C -0,4 C 2,1 km/h (1 Bft)
21.01.2023 -1,6 C 84 % 1018,6 hPa 0,0 l/m 3,5 km/h (1 Bft) SO -4,0 C -1,6 C 6,5 km/h (2 Bft)
22.01.2023 0,0 C 90 % 1021,7 hPa 0,0 l/m 0,5 km/h (0 Bft) N -1,4 C 0,0 C 1,7 km/h (1 Bft)
23.01.2023 2,2 C 79 % 1024,0 hPa 0,0 l/m 2,9 km/h (1 Bft) NO -1,2 C 2,2 C 5,1 km/h (1 Bft)
24.01.2023 4,0 C 83 % 1026,7 hPa 0,0 l/m 2,5 km/h (1 Bft) N-NO 1,3 C 4,0 C 5,2 km/h (1 Bft)
25.01.2023 2,4 C 92 % 1024,2 hPa 0,0 l/m 1,0 km/h (0 Bft) W-NW 1,2 C 2,4 C 2,6 km/h (1 Bft)
26.01.2023 0,3 C 91 % 1016,6 hPa 0,0 l/m 2,2 km/h (1 Bft) N-NO -1,1 C 0,3 C 4,3 km/h (1 Bft)
27.01.2023 0,2 C 83 % 1016,2 hPa 0,0 l/m 2,0 km/h (1 Bft) N-NO -2,3 C 0,2 C 4,1 km/h (1 Bft)
28.01.2023 2,1 C 76 % 1020,3 hPa 0,0 l/m 2,3 km/h (1 Bft) N-NO -1,7 C 2,1 C 4,8 km/h (1 Bft)
29.01.2023 0,2 C 84 % 1023,3 hPa 0,0 l/m 1,4 km/h (1 Bft) N-NO -2,2 C 0,2 C 2,8 km/h (1 Bft)
30.01.2023 0,6 C 85 % 1021,6 hPa 0,0 l/m 6,1 km/h (2 Bft) SW -1,6 C -1,1 C 9,4 km/h (2 Bft)
31.01.2023 2,4 C 87 % 1024,2 hPa 0,0 l/m 4,8 km/h (1 Bft) W-SW 0,4 C 1,4 C 6,8 km/h (2 Bft)
01.02.2023 5,2 C 83 % 1022,3 hPa 0,3 l/m 11,4 km/h (2 Bft) SW 2,6 C 1,5 C 16,1 km/h (3 Bft)
02.02.2023 5,7 C 85 % 1025,2 hPa 0,3 l/m 11,2 km/h (2 Bft) W-SW 3,4 C 2,2 C 16,0 km/h (3 Bft)
03.02.2023 6,6 C 83 % 1028,2 hPa 1,5 l/m 10,7 km/h (2 Bft) SW 3,8 C 3,4 C 15,1 km/h (3 Bft)
04.02.2023 5,5 C 95 % 1030,5 hPa 11,4 l/m 1,5 km/h (1 Bft) W-SW 4,7 C 5,4 C 2,7 km/h (1 Bft)
05.02.2023 2,1 C 98 % 1031,4 hPa 6,9 l/m 0,5 km/h (0 Bft) O-SO 1,8 C 2,1 C 1,5 km/h (1 Bft)
06.02.2023 2,5 C 86 % 1031,5 hPa 0,3 l/m 1,5 km/h (1 Bft) O-NO 0,2 C 2,5 C 3,2 km/h (1 Bft)
07.02.2023 0,8 C 74 % 1030,4 hPa 0,0 l/m 2,9 km/h (1 Bft) W-SW -3,4 C 0,7 C 4,8 km/h (1 Bft)
08.02.2023 -1,7 C 80 % 1029,3 hPa 0,0 l/m 1,3 km/h (1 Bft) W-SW -4,9 C -1,7 C 3,0 km/h (1 Bft)
09.02.2023 -0,9 C 81 % 1028,9 hPa 0,0 l/m 1,0 km/h (0 Bft) W -4,0 C -0,9 C 2,4 km/h (1 Bft)
10.02.2023 -0,0 C 83 % 1034,0 hPa 0,0 l/m 1,2 km/h (1 Bft) W -2,6 C -0,0 C 3,0 km/h (1 Bft)
11.02.2023 1,5 C 80 % 1032,6 hPa 0,0 l/m 1,6 km/h (1 Bft) W -1,8 C 1,4 C 3,8 km/h (1 Bft)
12.02.2023 2,4 C 87 % 1031,7 hPa 0,0 l/m 1,5 km/h (1 Bft) O-NO 0,3 C 2,4 C 2,8 km/h (1 Bft)
13.02.2023 2,0 C 93 % 1031,7 hPa 0,0 l/m 1,4 km/h (1 Bft) W 0,9 C 2,0 C 2,8 km/h (1 Bft)
14.02.2023 -1,1 C 99 % 1029,8 hPa 0,0 l/m 0,5 km/h (0 Bft) W -1,2 C -1,1 C 1,2 km/h (1 Bft)
15.02.2023 0,2 C 96 % 1025,0 hPa 0,0 l/m 1,0 km/h (0 Bft) W -0,4 C 0,2 C 1,8 km/h (1 Bft)
16.02.2023 7,4 C 70 % 1023,5 hPa 0,0 l/m 4,0 km/h (1 Bft) SW 1,7 C 6,9 C 6,8 km/h (2 Bft)
17.02.2023 11,7 C 74 % 1023,8 hPa 0,0 l/m 10,2 km/h (2 Bft) SW 7,1 C 9,4 C 15,8 km/h (3 Bft)
18.02.2023 12,4 C 80 % 1022,5 hPa 0,0 l/m 11,2 km/h (2 Bft) W-SW 8,9 C 9,8 C 16,0 km/h (3 Bft)
19.02.2023 10,2 C 77 % 1022,4 hPa 0,0 l/m 7,1 km/h (2 Bft) W 6,4 C 9,0 C 10,1 km/h (2 Bft)
20.02.2023 7,9 C 78 % 1022,7 hPa 0,0 l/m 0,9 km/h (0 Bft) W 3,9 C 7,9 C 2,5 km/h (1 Bft)
21.02.2023 7,4 C 74 % 1015,4 hPa 0,0 l/m 2,0 km/h (1 Bft) SO 2,7 C 7,4 C 3,7 km/h (1 Bft)
22.02.2023 7,6 C 84 % 1013,7 hPa 0,9 l/m 3,9 km/h (1 Bft) W-SW 4,9 C 7,1 C 6,4 km/h (2 Bft)
23.02.2023 9,7 C 89 % 1009,2 hPa 0,6 l/m 1,5 km/h (1 Bft) N-NO 7,9 C 9,7 C 3,7 km/h (1 Bft)
24.02.2023 7,2 C 94 % 1004,4 hPa 11,7 l/m 0,5 km/h (0 Bft) SW 6,2 C 7,2 C 1,7 km/h (1 Bft)
25.02.2023 4,5 C 80 % 1004,4 hPa 0,6 l/m 1,7 km/h (1 Bft) N-NO 1,2 C 4,5 C 3,9 km/h (1 Bft)
26.02.2023 0,8 C 66 % 1010,4 hPa 0,0 l/m 4,2 km/h (1 Bft) N-NO -4,7 C 0,6 C 8,5 km/h (2 Bft)
27.02.2023 1,6 C 60 % 1016,0 hPa 0,0 l/m 3,8 km/h (1 Bft) O-NO -5,3 C 1,5 C 7,7 km/h (2 Bft)
28.02.2023 0,5 C 72 % 1018,8 hPa 0,0 l/m 1,6 km/h (1 Bft) NO -4,1 C 0,5 C 3,6 km/h (1 Bft)
01.03.2023 1,1 C 80 % 1015,8 hPa 0,0 l/m 1,8 km/h (1 Bft) O-SO -2,3 C 1,1 C 3,0 km/h (1 Bft)
02.03.2023 1,0 C 86 % 1013,7 hPa 0,0 l/m 0,8 km/h (0 Bft) S-SW -1,1 C 1,0 C 2,3 km/h (1 Bft)
03.03.2023 2,4 C 87 % 1016,3 hPa 0,0 l/m 1,8 km/h (1 Bft) S-SO 0,3 C 2,4 C 3,8 km/h (1 Bft)
04.03.2023 0,8 C 87 % 1018,3 hPa 0,0 l/m 1,2 km/h (1 Bft) W-NW -1,3 C 0,8 C 2,5 km/h (1 Bft)
05.03.2023 2,2 C 81 % 1012,2 hPa 0,0 l/m 1,2 km/h (1 Bft) NO -0,9 C 2,2 C 2,5 km/h (1 Bft)
06.03.2023 3,5 C 78 % 1004,0 hPa 0,0 l/m 2,3 km/h (1 Bft) N-NO -0,1 C 3,2 C 3,7 km/h (1 Bft)
07.03.2023 4,8 C 65 % 1000,4 hPa 0,0 l/m 8,6 km/h (2 Bft) W-SW -1,3 C 2,7 C 12,7 km/h (3 Bft)
08.03.2023 8,8 C 75 % 995,0 hPa 1,8 l/m 10,7 km/h (2 Bft) W-SW 4,7 C 6,3 C 15,9 km/h (3 Bft)
09.03.2023 12,1 C 73 % 997,2 hPa 6,0 l/m 13,0 km/h (3 Bft) W-SW 7,3 C 8,7 C 18,9 km/h (3 Bft)
10.03.2023 9,1 C 79 % 995,3 hPa 2,7 l/m 12,9 km/h (3 Bft) SW 5,6 C 5,4 C 19,3 km/h (3 Bft)
11.03.2023 3,8 C 68 % 1006,1 hPa 0,0 l/m 1,9 km/h (1 Bft) W -1,8 C 3,8 C 3,4 km/h (1 Bft)
12.03.2023 8,9 C 78 % 1009,9 hPa 0,0 l/m 6,5 km/h (2 Bft) W-SW 5,1 C 7,7 C 10,0 km/h (2 Bft)
13.03.2023 14,9 C 73 % 1002,4 hPa 22,8 l/m 7,5 km/h (2 Bft) SW 9,9 C 13,9 C 11,3 km/h (2 Bft)
14.03.2023 9,4 C 76 % 1000,3 hPa 5,1 l/m 9,9 km/h (2 Bft) W-SW 5,4 C 7,1 C 14,1 km/h (3 Bft)
15.03.2023 4,6 C 78 % 1014,5 hPa 0,0 l/m 2,6 km/h (1 Bft) W 0,7 C 4,3 C 4,6 km/h (1 Bft)
16.03.2023 6,0 C 77 % 1012,9 hPa 0,0 l/m 2,0 km/h (1 Bft) N-NW 1,8 C 5,9 C 3,6 km/h (1 Bft)
17.03.2023 9,9 C 68 % 1007,8 hPa 0,0 l/m 2,6 km/h (1 Bft) SW 3,8 C 9,9 C 4,4 km/h (1 Bft)
18.03.2023 13,0 C 58 % 1009,2 hPa 0,0 l/m 4,5 km/h (1 Bft) W-SW 4,7 C 12,5 C 7,2 km/h (2 Bft)
19.03.2023 11,2 C 77 % 1012,6 hPa 2,1 l/m 4,5 km/h (1 Bft) O-NO 7,1 C 10,7 C 6,8 km/h (2 Bft)
20.03.2023 9,4 C 85 % 1016,8 hPa 0,0 l/m 1,3 km/h (1 Bft) SW 6,8 C 9,4 C 2,3 km/h (1 Bft)
21.03.2023 10,4 C 76 % 1013,1 hPa 0,0 l/m 1,8 km/h (1 Bft) O 6,0 C 10,4 C 3,5 km/h (1 Bft)
22.03.2023 12,2 C 70 % 1009,4 hPa 0,0 l/m 5,6 km/h (1 Bft) NO 6,4 C 11,5 C 8,3 km/h (2 Bft)
23.03.2023 14,1 C 71 % 1006,8 hPa 1,2 l/m 4,3 km/h (1 Bft) W-SW 8,8 C 13,8 C 6,9 km/h (2 Bft)
24.03.2023 12,1 C 82 % 1005,6 hPa 6,3 l/m 9,0 km/h (2 Bft) W-SW 9,2 C 10,1 C 13,3 km/h (3 Bft)
25.03.2023 9,8 C 79 % 1009,3 hPa 3,6 l/m 10,5 km/h (2 Bft) W-SW 6,3 C 7,1 C 15,8 km/h (3 Bft)
26.03.2023 9,2 C 81 % 1003,5 hPa 2,1 l/m 6,2 km/h (2 Bft) W-SW 6,0 C 8,1 C 10,1 km/h (2 Bft)
27.03.2023 5,5 C 78 % 1014,0 hPa 3,0 l/m 3,7 km/h (1 Bft) NO 1,5 C 5,3 C 6,9 km/h (2 Bft)
28.03.2023 5,7 C 75 % 1021,2 hPa 0,0 l/m 1,5 km/h (1 Bft) O-SO 1,0 C 5,7 C 2,8 km/h (1 Bft)
29.03.2023 12,7 C 60 % 1014,2 hPa 0,0 l/m 3,9 km/h (1 Bft) W-SW 4,8 C 12,4 C 6,3 km/h (2 Bft)
30.03.2023 13,3 C 81 % 1009,9 hPa 9,0 l/m 4,4 km/h (1 Bft) SW 10,0 C 12,7 C 6,9 km/h (2 Bft)
31.03.2023 11,5 C 77 % 1002,7 hPa 9,0 l/m 9,6 km/h (2 Bft) W-SW 7,6 C 9,2 C 15,0 km/h (3 Bft)
01.04.2023 9,3 C 84 % 1002,5 hPa 2,7 l/m 12,2 km/h (2 Bft) W-SW 6,8 C 5,9 C 18,9 km/h (3 Bft)
02.04.2023 9,0 C 88 % 1010,1 hPa 6,9 l/m 3,3 km/h (1 Bft) W-SW 7,2 C 8,8 C 5,3 km/h (1 Bft)
03.04.2023 6,0 C 72 % 1019,1 hPa 0,0 l/m 2,1 km/h (1 Bft) O-NO 1,1 C 6,0 C 5,0 km/h (1 Bft)
04.04.2023 4,5 C 61 % 1017,7 hPa 0,0 l/m 3,1 km/h (1 Bft) N-NO -2,9 C 4,3 C 5,4 km/h (1 Bft)
05.04.2023 4,7 C 65 % 1016,4 hPa 0,0 l/m 2,4 km/h (1 Bft) W -1,9 C 4,6 C 4,1 km/h (1 Bft)
06.04.2023 6,2 C 67 % 1014,5 hPa 0,0 l/m 2,1 km/h (1 Bft) W-SW 0,1 C 6,1 C 4,2 km/h (1 Bft)
07.04.2023 7,4 C 85 % 1013,2 hPa 0,0 l/m 3,0 km/h (1 Bft) SO 4,9 C 7,2 C 4,9 km/h (1 Bft)
08.04.2023 8,3 C 82 % 1016,4 hPa 0,0 l/m 0,6 km/h (0 Bft) W-SW 5,3 C 8,3 C 1,5 km/h (1 Bft)
09.04.2023 9,6 C 68 % 1018,2 hPa 0,0 l/m 2,7 km/h (1 Bft) N-NO 3,2 C 9,5 C 5,3 km/h (1 Bft)
10.04.2023 11,0 C 65 % 1014,6 hPa 0,3 l/m 4,2 km/h (1 Bft) SW 4,3 C 10,7 C 6,7 km/h (2 Bft)
11.04.2023 11,9 C 69 % 1012,2 hPa 1,5 l/m 6,8 km/h (2 Bft) W-SW 6,3 C 11,0 C 9,9 km/h (2 Bft)
12.04.2023 9,7 C 88 % 1002,5 hPa 14,7 l/m 5,3 km/h (1 Bft) S-SW 7,6 C 8,7 C 9,1 km/h (2 Bft)
13.04.2023 8,0 C 80 % 1004,2 hPa 0,9 l/m 7,0 km/h (2 Bft) W-SW 4,7 C 6,4 C 10,6 km/h (2 Bft)
14.04.2023 7,2 C 74 % 1004,7 hPa 0,0 l/m 2,9 km/h (1 Bft) O-SO 2,2 C 7,1 C 5,2 km/h (1 Bft)
15.04.2023 10,4 C 79 % 993,4 hPa 7,8 l/m 13,2 km/h (3 Bft) W-SW 6,8 C 6,8 C 19,3 km/h (3 Bft)
16.04.2023 12,0 C 72 % 997,5 hPa 0,3 l/m 11,7 km/h (2 Bft) W-SW 7,0 C 9,1 C 17,0 km/h (3 Bft)
17.04.2023 7,4 C 79 % 997,5 hPa 2,4 l/m 11,1 km/h (2 Bft) W-NW 4,0 C 4,3 C 17,0 km/h (3 Bft)
18.04.2023 3,5 C 69 % 1007,2 hPa 0,0 l/m 1,5 km/h (1 Bft) W -2,0 C 3,5 C 3,0 km/h (1 Bft)
19.04.2023 11,3 C 75 % 1009,7 hPa 0,3 l/m 8,4 km/h (2 Bft) W-SW 6,8 C 9,6 C 12,7 km/h (3 Bft)
20.04.2023 14,5 C 76 % 1000,1 hPa 23,7 l/m 7,0 km/h (2 Bft) W-SW 9,9 C 13,6 C 10,3 km/h (2 Bft)
21.04.2023 7,1 C 79 % 1003,8 hPa 3,9 l/m 7,8 km/h (2 Bft) W-SW 3,6 C 5,2 C 11,4 km/h (2 Bft)
22.04.2023 4,3 C 77 % 1015,3 hPa 0,0 l/m 2,9 km/h (1 Bft) W 0,4 C 4,0 C 5,0 km/h (1 Bft)
23.04.2023 6,8 C 75 % 1011,1 hPa 0,0 l/m 2,1 km/h (1 Bft) N-NW 2,3 C 6,7 C 3,8 km/h (1 Bft)
24.04.2023 12,0 C 61 % 1008,0 hPa 0,0 l/m 3,4 km/h (1 Bft) SW 4,5 C 11,9 C 5,3 km/h (1 Bft)
25.04.2023 12,7 C 63 % 1009,7 hPa 0,3 l/m 4,2 km/h (1 Bft) O-NO 5,3 C 12,2 C 6,6 km/h (2 Bft)
26.04.2023 10,5 C 82 % 1014,0 hPa 1,8 l/m 3,7 km/h (1 Bft) S-SW 7,4 C 10,0 C 5,7 km/h (1 Bft)
27.04.2023 8,7 C 83 % 1016,4 hPa 0,0 l/m 1,4 km/h (1 Bft) SW 5,9 C 8,7 C 2,8 km/h (1 Bft)
28.04.2023 10,8 C 75 % 1012,2 hPa 0,0 l/m 2,2 km/h (1 Bft) NO 6,3 C 10,8 C 3,9 km/h (1 Bft)
29.04.2023 14,4 C 65 % 1007,9 hPa 0,0 l/m 6,3 km/h (2 Bft) O 7,4 C 13,5 C 9,2 km/h (2 Bft)
30.04.2023 13,7 C 76 % 1005,9 hPa 3,0 l/m 4,4 km/h (1 Bft) W-SW 9,4 C 13,2 C 7,2 km/h (2 Bft)
01.05.2023 10,9 C 81 % 1007,4 hPa 7,2 l/m 11,1 km/h (2 Bft) W-SW 7,7 C 8,1 C 16,6 km/h (3 Bft)
02.05.2023 9,8 C 79 % 1008,3 hPa 0,9 l/m 8,1 km/h (2 Bft) W-SW 6,4 C 8,0 C 12,0 km/h (2 Bft)
03.05.2023 8,2 C 82 % 1004,0 hPa 4,2 l/m 6,9 km/h (2 Bft) W 5,1 C 7,0 C 11,2 km/h (2 Bft)
04.05.2023 3,5 C 82 % 1019,8 hPa 0,9 l/m 2,0 km/h (1 Bft) NO 0,2 C 3,5 C 4,3 km/h (1 Bft)
05.05.2023 8,3 C 67 % 1018,5 hPa 0,0 l/m 1,6 km/h (1 Bft) O-SO 2,3 C 8,3 C 2,9 km/h (1 Bft)
06.05.2023 14,7 C 63 % 1011,7 hPa 0,6 l/m 4,1 km/h (1 Bft) W-SW 7,3 C 14,5 C 6,7 km/h (2 Bft)
07.05.2023 11,0 C 77 % 999,7 hPa 13,2 l/m 9,4 km/h (2 Bft) W-SW 5,8 C 8,7 C 14,6 km/h (3 Bft)
08.05.2023 9,2 C 85 % 1003,0 hPa 3,3 l/m 12,2 km/h (2 Bft) W-SW 6,8 C 5,7 C 19,1 km/h (3 Bft)
09.05.2023 8,2 C 88 % 1014,5 hPa 6,3 l/m 2,7 km/h (1 Bft) NO 6,2 C 8,1 C 4,7 km/h (1 Bft)
10.05.2023 3,8 C 70 % 1019,3 hPa 0,0 l/m 1,8 km/h (1 Bft) O-NO -1,3 C 3,8 C 3,8 km/h (1 Bft)
11.05.2023 4,6 C 61 % 1017,6 hPa 0,0 l/m 2,8 km/h (1 Bft) N-NO -2,8 C 4,4 C 5,4 km/h (1 Bft)
12.05.2023 4,5 C 67 % 1015,7 hPa 0,0 l/m 2,5 km/h (1 Bft) W -1,7 C 4,4 C 4,5 km/h (1 Bft)
13.05.2023 8,8 C 67 % 1013,8 hPa 0,0 l/m 2,0 km/h (1 Bft) SO 2,6 C 8,7 C 4,0 km/h (1 Bft)
14.05.2023 6,9 C 88 % 1014,8 hPa 0,0 l/m 2,8 km/h (1 Bft) W 5,0 C 6,6 C 4,3 km/h (1 Bft)
15.05.2023 8,6 C 75 % 1018,5 hPa 0,0 l/m 2,1 km/h (1 Bft) N-NO 3,7 C 8,6 C 4,2 km/h (1 Bft)
16.05.2023 10,5 C 63 % 1016,8 hPa 0,0 l/m 3,1 km/h (1 Bft) O 3,5 C 10,4 C 5,1 km/h (1 Bft)
17.05.2023 13,1 C 66 % 1012,6 hPa 1,8 l/m 8,0 km/h (2 Bft) W-SW 6,7 C 11,9 C 11,8 km/h (2 Bft)
18.05.2023 10,2 C 82 % 1004,6 hPa 9,9 l/m 5,4 km/h (1 Bft) O-NO 7,2 C 9,3 C 8,9 km/h (2 Bft)
19.05.2023 8,1 C 81 % 1003,6 hPa 5,7 l/m 7,1 km/h (2 Bft) W-SW 5,0 C 6,6 C 10,7 km/h (2 Bft)
20.05.2023 7,9 C 75 % 1005,3 hPa 0,0 l/m 2,3 km/h (1 Bft) O-SO 3,1 C 7,8 C 4,3 km/h (1 Bft)
21.05.2023 9,2 C 71 % 1004,4 hPa 0,0 l/m 2,8 km/h (1 Bft) O-SO 3,7 C 9,0 C 5,4 km/h (1 Bft)
22.05.2023 8,8 C 90 % 1015,3 hPa 1,2 l/m 0,5 km/h (0 Bft) N-NO 7,1 C 8,8 C 1,8 km/h (1 Bft)
23.05.2023 9,6 C 90 % 1016,9 hPa 1,5 l/m 1,2 km/h (1 Bft) NO 7,9 C 9,6 C 2,3 km/h (1 Bft)
24.05.2023 9,6 C 84 % 1015,3 hPa 0,0 l/m 2,1 km/h (1 Bft) N-NO 6,9 C 9,6 C 4,1 km/h (1 Bft)
25.05.2023 14,1 C 77 % 1015,7 hPa 0,0 l/m 1,7 km/h (1 Bft) N 9,6 C 14,1 C 3,4 km/h (1 Bft)
26.05.2023 17,7 C 73 % 1017,7 hPa 0,0 l/m 2,9 km/h (1 Bft) N-NO 12,3 C 17,6 C 5,4 km/h (1 Bft)
27.05.2023 18,2 C 70 % 1015,3 hPa 0,0 l/m 2,3 km/h (1 Bft) NO 12,1 C 18,2 C 4,6 km/h (1 Bft)
28.05.2023 18,4 C 66 % 1011,5 hPa 0,0 l/m 2,5 km/h (1 Bft) NO 11,2 C 18,4 C 4,7 km/h (1 Bft)
29.05.2023 19,7 C 58 % 1011,7 hPa 0,0 l/m 1,9 km/h (1 Bft) N-NO 10,2 C 19,7 C 3,9 km/h (1 Bft)
30.05.2023 19,2 C 61 % 1013,6 hPa 0,0 l/m 3,5 km/h (1 Bft) NO 10,8 C 19,2 C 7,0 km/h (2 Bft)
31.05.2023 20,3 C 49 % 1012,7 hPa 0,0 l/m 2,9 km/h (1 Bft) NO 8,7 C 20,3 C 5,6 km/h (1 Bft)
01.06.2023 19,5 C 61 % 1011,7 hPa 0,0 l/m 1,9 km/h (1 Bft) NO 11,3 C 19,5 C 3,6 km/h (1 Bft)
02.06.2023 18,1 C 69 % 1010,4 hPa 0,0 l/m 2,6 km/h (1 Bft) W-NW 11,9 C 18,1 C 4,7 km/h (1 Bft)
03.06.2023 18,0 C 74 % 1010,4 hPa 0,0 l/m 2,7 km/h (1 Bft) W 12,7 C 18,0 C 4,9 km/h (1 Bft)
04.06.2023 17,3 C 77 % 1011,7 hPa 0,6 l/m 1,2 km/h (1 Bft) W 12,9 C 17,3 C 2,8 km/h (1 Bft)
05.06.2023 18,4 C 66 % 1011,4 hPa 0,0 l/m 2,3 km/h (1 Bft) NW 11,1 C 18,4 C 4,6 km/h (1 Bft)
06.06.2023 19,4 C 63 % 1011,3 hPa 0,0 l/m 1,7 km/h (1 Bft) NO 11,3 C 19,4 C 3,4 km/h (1 Bft)
07.06.2023 20,2 C 60 % 1011,3 hPa 0,0 l/m 1,8 km/h (1 Bft) NW 11,5 C 20,2 C 3,7 km/h (1 Bft)
08.06.2023 20,2 C 65 % 1008,8 hPa 0,0 l/m 1,4 km/h (1 Bft) W-SW 12,8 C 20,2 C 3,2 km/h (1 Bft)
09.06.2023 21,6 C 62 % 1006,8 hPa 0,0 l/m 1,5 km/h (1 Bft) NO 13,2 C 21,6 C 3,7 km/h (1 Bft)
10.06.2023 22,1 C 64 % 1007,3 hPa 0,0 l/m 1,7 km/h (1 Bft) W 14,6 C 22,1 C 2,8 km/h (1 Bft)
11.06.2023 23,2 C 60 % 1008,6 hPa 0,0 l/m 1,9 km/h (1 Bft) N-NO 14,1 C 23,2 C 4,4 km/h (1 Bft)
12.06.2023 23,2 C 48 % 1008,0 hPa 0,0 l/m 2,8 km/h (1 Bft) O-NO 10,7 C 23,2 C 5,2 km/h (1 Bft)
13.06.2023 21,0 C 46 % 1005,7 hPa 0,0 l/m 2,7 km/h (1 Bft) N-NO 7,5 C 21,0 C 4,8 km/h (1 Bft)
14.06.2023 19,8 C 50 % 1007,8 hPa 0,0 l/m 2,7 km/h (1 Bft) O 8,4 C 19,8 C 5,5 km/h (1 Bft)
15.06.2023 19,7 C 60 % 1011,4 hPa 0,0 l/m 1,8 km/h (1 Bft) N-NO 10,8 C 19,7 C 3,5 km/h (1 Bft)
16.06.2023 20,8 C 53 % 1012,6 hPa 0,0 l/m 1,8 km/h (1 Bft) O 9,7 C 20,8 C 3,5 km/h (1 Bft)
17.06.2023 21,7 C 50 % 1010,9 hPa 0,0 l/m 1,3 km/h (1 Bft) N-NO 9,7 C 21,7 C 3,1 km/h (1 Bft)
18.06.2023 22,8 C 53 % 1008,4 hPa 0,0 l/m 1,7 km/h (1 Bft) NO 11,9 C 22,8 C 3,7 km/h (1 Bft)
19.06.2023 23,5 C 67 % 1009,3 hPa 3,9 l/m 2,1 km/h (1 Bft) O-SO 16,0 C 23,5 C 4,0 km/h (1 Bft)
20.06.2023 24,8 C 69 % 1008,0 hPa 1,8 l/m 2,3 km/h (1 Bft) O-SO 17,9 C 24,8 C 4,1 km/h (1 Bft)
21.06.2023 23,0 C 77 % 1012,2 hPa 6,0 l/m 1,8 km/h (1 Bft) O-SO 18,2 C 23,0 C 3,2 km/h (1 Bft)
22.06.2023 22,3 C 81 % 1010,3 hPa 6,6 l/m 2,7 km/h (1 Bft) S 18,6 C 22,2 C 4,5 km/h (1 Bft)
23.06.2023 20,8 C 74 % 1017,9 hPa 9,9 l/m 3,3 km/h (1 Bft) W 15,0 C 20,7 C 5,6 km/h (1 Bft)
24.06.2023 21,7 C 61 % 1018,4 hPa 0,0 l/m 2,2 km/h (1 Bft) N-NO 12,6 C 21,7 C 3,7 km/h (1 Bft)
25.06.2023 23,5 C 57 % 1012,9 hPa 0,0 l/m 1,9 km/h (1 Bft) N-NO 13,4 C 23,5 C 3,8 km/h (1 Bft)
26.06.2023 23,4 C 61 % 1012,7 hPa 0,0 l/m 2,7 km/h (1 Bft) O-SO 15,0 C 23,4 C 5,7 km/h (1 Bft)
27.06.2023 20,0 C 61 % 1015,7 hPa 0,0 l/m 1,3 km/h (1 Bft) N-NO 11,5 C 20,0 C 3,2 km/h (1 Bft)
28.06.2023 20,1 C 62 % 1013,8 hPa 0,0 l/m 1,4 km/h (1 Bft) N-NO 12,0 C 20,1 C 3,3 km/h (1 Bft)
29.06.2023 22,1 C 62 % 1010,4 hPa 0,0 l/m 1,7 km/h (1 Bft) NO 13,9 C 22,1 C 3,5 km/h (1 Bft)
30.06.2023 18,8 C 89 % 1008,4 hPa 19,5 l/m 1,4 km/h (1 Bft) W-SW 16,8 C 18,8 C 3,2 km/h (1 Bft)
01.07.2023 17,6 C 82 % 1007,5 hPa 0,3 l/m 4,6 km/h (1 Bft) W-SW 14,3 C 17,3 C 7,3 km/h (2 Bft)
02.07.2023 20,5 C 70 % 1008,8 hPa 0,0 l/m 5,7 km/h (1 Bft) W-SW 14,2 C 20,3 C 9,0 km/h (2 Bft)
03.07.2023 20,1 C 64 % 1010,8 hPa 0,0 l/m 5,8 km/h (2 Bft) W 12,5 C 19,7 C 9,2 km/h (2 Bft)
04.07.2023 20,2 C 78 % 1010,9 hPa 1,5 l/m 2,8 km/h (1 Bft) W-SW 15,8 C 20,1 C 5,1 km/h (1 Bft)
05.07.2023 19,7 C 69 % 1010,5 hPa 1,2 l/m 7,1 km/h (2 Bft) W-SW 13,1 C 18,8 C 11,1 km/h (2 Bft)
06.07.2023 19,6 C 60 % 1013,4 hPa 0,0 l/m 1,8 km/h (1 Bft) N-NO 10,5 C 19,6 C 3,7 km/h (1 Bft)
07.07.2023 22,9 C 57 % 1013,5 hPa 0,0 l/m 2,4 km/h (1 Bft) W 12,8 C 22,9 C 4,5 km/h (1 Bft)
08.07.2023 24,6 C 59 % 1013,3 hPa 0,6 l/m 4,0 km/h (1 Bft) W 15,2 C 24,4 C 7,2 km/h (2 Bft)
09.07.2023 27,5 C 55 % 1014,3 hPa 0,0 l/m 2,1 km/h (1 Bft) O-SO 16,9 C 27,5 C 4,4 km/h (1 Bft)
10.07.2023 25,8 C 66 % 1015,6 hPa 2,4 l/m 2,7 km/h (1 Bft) W-SW 18,6 C 25,8 C 4,8 km/h (1 Bft)
11.07.2023 26,7 C 66 % 1010,3 hPa 9,9 l/m 4,0 km/h (1 Bft) N-NO 18,5 C 26,5 C 7,3 km/h (2 Bft)
12.07.2023 23,2 C 77 % 1008,9 hPa 3,9 l/m 4,1 km/h (1 Bft) W 18,6 C 23,1 C 6,8 km/h (2 Bft)
13.07.2023 22,0 C 64 % 1013,2 hPa 0,0 l/m 1,7 km/h (1 Bft) W 14,2 C 22,0 C 3,7 km/h (1 Bft)
14.07.2023 21,5 C 64 % 1011,1 hPa 0,0 l/m 2,0 km/h (1 Bft) W-SW 13,9 C 21,5 C 3,9 km/h (1 Bft)
15.07.2023 25,3 C 63 % 1005,8 hPa 16,8 l/m 3,5 km/h (1 Bft) W 17,0 C 25,3 C 5,9 km/h (2 Bft)
16.07.2023 21,0 C 71 % 1012,9 hPa 1,8 l/m 6,4 km/h (2 Bft) W-SW 15,2 C 20,6 C 9,2 km/h (2 Bft)
17.07.2023 22,1 C 65 % 1015,4 hPa 0,0 l/m 4,3 km/h (1 Bft) W-SW 14,6 C 21,9 C 6,9 km/h (2 Bft)
18.07.2023 19,7 C 74 % 1014,3 hPa 1,8 l/m 2,2 km/h (1 Bft) NO 14,8 C 19,7 C 4,2 km/h (1 Bft)
19.07.2023 23,4 C 68 % 1009,8 hPa 0,0 l/m 4,1 km/h (1 Bft) W 16,3 C 23,3 C 6,9 km/h (2 Bft)
20.07.2023 22,1 C 57 % 1010,2 hPa 0,0 l/m 1,8 km/h (1 Bft) N-NO 12,8 C 22,1 C 3,4 km/h (1 Bft)
21.07.2023 18,8 C 68 % 1008,2 hPa 0,0 l/m 2,0 km/h (1 Bft) NO 12,4 C 18,7 C 4,3 km/h (1 Bft)
22.07.2023 19,9 C 64 % 1011,4 hPa 0,0 l/m 5,6 km/h (1 Bft) SW 11,8 C 19,4 C 8,2 km/h (2 Bft)
23.07.2023 20,6 C 66 % 1009,2 hPa 0,0 l/m 4,0 km/h (1 Bft) W-SW 13,7 C 20,3 C 6,3 km/h (2 Bft)
24.07.2023 19,5 C 81 % 1003,9 hPa 9,9 l/m 3,1 km/h (1 Bft) SO 16,0 C 19,2 C 5,2 km/h (1 Bft)
25.07.2023 16,9 C 88 % 1002,9 hPa 8,4 l/m 4,8 km/h (1 Bft) W-SW 14,7 C 16,3 C 7,6 km/h (2 Bft)
26.07.2023 16,1 C 79 % 1011,1 hPa 1,8 l/m 3,2 km/h (1 Bft) W-SW 12,1 C 15,9 C 5,1 km/h (1 Bft)
27.07.2023 18,0 C 77 % 1008,4 hPa 0,0 l/m 4,5 km/h (1 Bft) W-SW 13,8 C 17,6 C 7,6 km/h (2 Bft)
28.07.2023 19,4 C 86 % 1006,9 hPa 11,1 l/m 2,8 km/h (1 Bft) O-NO 16,8 C 19,3 C 4,8 km/h (1 Bft)
29.07.2023 20,6 C 85 % 1007,4 hPa 3,6 l/m 4,7 km/h (1 Bft) W-SW 17,8 C 20,2 C 7,2 km/h (2 Bft)
30.07.2023 21,1 C 72 % 1010,8 hPa 0,0 l/m 5,8 km/h (2 Bft) W 15,7 C 20,7 C 9,4 km/h (2 Bft)
31.07.2023 18,8 C 73 % 1014,3 hPa 0,0 l/m 5,6 km/h (1 Bft) W-SW 13,4 C 18,2 C 8,6 km/h (2 Bft)
01.08.2023 19,8 C 77 % 1002,4 hPa 9,3 l/m 7,6 km/h (2 Bft) W-SW 15,4 C 18,9 C 11,5 km/h (2 Bft)
02.08.2023 20,1 C 78 % 998,9 hPa 15,0 l/m 7,3 km/h (2 Bft) W 16,0 C 19,5 C 11,4 km/h (2 Bft)
03.08.2023 19,5 C 69 % 1003,1 hPa 0,0 l/m 13,2 km/h (3 Bft) W-SW 13,6 C 17,3 C 19,5 km/h (3 Bft)
04.08.2023 16,0 C 88 % 1008,4 hPa 1,8 l/m 2,7 km/h (1 Bft) NO 13,9 C 15,8 C 4,9 km/h (1 Bft)
05.08.2023 17,7 C 79 % 1010,1 hPa 0,0 l/m 3,2 km/h (1 Bft) W 13,4 C 17,5 C 5,1 km/h (1 Bft)
06.08.2023 14,9 C 85 % 1007,9 hPa 11,7 l/m 8,9 km/h (2 Bft) W 12,2 C 13,2 C 13,1 km/h (3 Bft)
07.08.2023 14,7 C 84 % 1014,9 hPa 1,5 l/m 2,9 km/h (1 Bft) W-SW 11,8 C 14,4 C 5,2 km/h (1 Bft)
08.08.2023 16,4 C 77 % 1013,7 hPa 0,0 l/m 1,8 km/h (1 Bft) W-SW 11,8 C 16,3 C 3,4 km/h (1 Bft)
09.08.2023 17,7 C 81 % 1013,2 hPa 0,0 l/m 1,5 km/h (1 Bft) SO 14,2 C 17,7 C 2,9 km/h (1 Bft)
10.08.2023 20,0 C 76 % 1015,5 hPa 0,0 l/m 1,7 km/h (1 Bft) W-SW 15,0 C 20,0 C 3,1 km/h (1 Bft)
11.08.2023 22,4 C 70 % 1016,2 hPa 0,0 l/m 1,8 km/h (1 Bft) W 15,9 C 22,4 C 3,4 km/h (1 Bft)
12.08.2023 22,7 C 80 % 1013,9 hPa 0,6 l/m 2,5 km/h (1 Bft) O-SO 18,8 C 22,6 C 4,1 km/h (1 Bft)
13.08.2023 22,9 C 86 % 1013,1 hPa 2,7 l/m 1,6 km/h (1 Bft) W-NW 20,2 C 22,9 C 3,3 km/h (1 Bft)
14.08.2023 23,8 C 85 % 1010,6 hPa 21,3 l/m 2,3 km/h (1 Bft) W 20,7 C 23,8 C 4,3 km/h (1 Bft)
15.08.2023 24,3 C 74 % 1011,6 hPa 0,6 l/m 3,7 km/h (1 Bft) W-SW 18,8 C 24,2 C 5,9 km/h (2 Bft)
16.08.2023 23,9 C 80 % 1012,6 hPa 0,0 l/m 2,1 km/h (1 Bft) W 19,8 C 23,9 C 4,3 km/h (1 Bft)
17.08.2023 22,8 C 83 % 1011,6 hPa 0,0 l/m 1,4 km/h (1 Bft) W 19,4 C 22,8 C 2,9 km/h (1 Bft)
18.08.2023 24,6 C 67 % 1010,2 hPa 0,0 l/m 1,7 km/h (1 Bft) O-SO 17,1 C 24,6 C 3,3 km/h (1 Bft)
19.08.2023 25,7 C 66 % 1011,6 hPa 0,0 l/m 2,2 km/h (1 Bft) O-NO 18,0 C 25,7 C 4,0 km/h (1 Bft)
20.08.2023 25,8 C 75 % 1015,1 hPa 0,0 l/m 1,7 km/h (1 Bft) NW 20,7 C 25,8 C 3,3 km/h (1 Bft)
21.08.2023 26,7 C 75 % 1015,9 hPa 0,0 l/m 1,3 km/h (1 Bft) W 21,3 C 26,7 C 2,6 km/h (1 Bft)
22.08.2023 26,5 C 72 % 1014,3 hPa 0,0 l/m 1,6 km/h (1 Bft) N-NO 20,5 C 26,5 C 3,1 km/h (1 Bft)
23.08.2023 25,2 C 73 % 1013,8 hPa 0,0 l/m 2,1 km/h (1 Bft) W 19,5 C 25,2 C 3,6 km/h (1 Bft)
24.08.2023 24,2 C 75 % 1010,0 hPa 20,7 l/m 2,1 km/h (1 Bft) O 19,0 C 24,2 C 3,7 km/h (1 Bft)
25.08.2023 21,8 C 86 % 1007,4 hPa 15,9 l/m 2,8 km/h (1 Bft) O-SO 19,1 C 21,7 C 5,0 km/h (1 Bft)
26.08.2023 18,8 C 94 % 1008,3 hPa 13,2 l/m 0,9 km/h (0 Bft) O-SO 17,8 C 18,8 C 1,7 km/h (1 Bft)
27.08.2023 16,7 C 93 % 1006,9 hPa 2,7 l/m 0,7 km/h (0 Bft) O-SO 15,6 C 16,7 C 1,8 km/h (1 Bft)
28.08.2023 14,4 C 95 % 1006,7 hPa 4,5 l/m 0,6 km/h (0 Bft) O-SO 13,6 C 14,4 C 2,1 km/h (1 Bft)
29.08.2023 14,5 C 92 % 1006,8 hPa 5,4 l/m 0,7 km/h (0 Bft) O-SO 13,0 C 14,5 C 2,1 km/h (1 Bft)
30.08.2023 16,0 C 81 % 1005,5 hPa 0,0 l/m 2,7 km/h (1 Bft) SW 12,4 C 16,0 C 4,5 km/h (1 Bft)
31.08.2023 16,4 C 81 % 1009,5 hPa 4,5 l/m 4,0 km/h (1 Bft) O-SO 12,9 C 16,1 C 6,3 km/h (2 Bft)
01.09.2023 20,9 C 73 % 1011,2 hPa 0,3 l/m 6,2 km/h (2 Bft) W-SW 15,6 C 20,4 C 9,5 km/h (2 Bft)
02.09.2023 20,9 C 76 % 1014,4 hPa 0,0 l/m 1,5 km/h (1 Bft) O-SO 16,0 C 20,9 C 3,4 km/h (1 Bft)
03.09.2023 20,5 C 85 % 1019,5 hPa 0,0 l/m 1,5 km/h (1 Bft) O-NO 17,7 C 20,5 C 3,4 km/h (1 Bft)
04.09.2023 20,7 C 82 % 1017,9 hPa 0,0 l/m 1,6 km/h (1 Bft) W 17,1 C 20,7 C 2,9 km/h (1 Bft)
05.09.2023 21,2 C 72 % 1014,2 hPa 0,0 l/m 2,1 km/h (1 Bft) W 15,6 C 21,2 C 3,7 km/h (1 Bft)
06.09.2023 20,6 C 74 % 1014,0 hPa 0,0 l/m 1,7 km/h (1 Bft) O-NO 15,5 C 20,6 C 3,3 km/h (1 Bft)
07.09.2023 21,7 C 77 % 1013,3 hPa 0,0 l/m 2,2 km/h (1 Bft) W 17,0 C 21,7 C 3,7 km/h (1 Bft)
08.09.2023 23,2 C 75 % 1012,8 hPa 0,0 l/m 1,6 km/h (1 Bft) O-NO 17,9 C 23,2 C 2,8 km/h (1 Bft)
09.09.2023 23,5 C 73 % 1012,2 hPa 0,0 l/m 1,9 km/h (1 Bft) O-SO 17,8 C 23,5 C 3,4 km/h (1 Bft)
10.09.2023 23,4 C 75 % 1012,5 hPa 0,0 l/m 1,0 km/h (0 Bft) O-NO 18,0 C 23,4 C 2,5 km/h (1 Bft)
11.09.2023 23,3 C 71 % 1009,6 hPa 0,0 l/m 1,5 km/h (1 Bft) W 16,9 C 23,3 C 3,4 km/h (1 Bft)
12.09.2023 23,6 C 66 % 1007,4 hPa 0,0 l/m 2,2 km/h (1 Bft) O-SO 15,9 C 23,6 C 4,2 km/h (1 Bft)
13.09.2023 19,5 C 87 % 1012,1 hPa 0,9 l/m 1,1 km/h (1 Bft) W 17,3 C 19,5 C 2,4 km/h (1 Bft)
14.09.2023 18,6 C 84 % 1015,3 hPa 0,0 l/m 1,8 km/h (1 Bft) NO 15,6 C 18,6 C 3,2 km/h (1 Bft)
15.09.2023 18,1 C 82 % 1011,9 hPa 0,0 l/m 1,8 km/h (1 Bft) NO 14,6 C 18,1 C 3,4 km/h (1 Bft)
16.09.2023 19,6 C 84 % 1009,3 hPa 0,0 l/m 1,2 km/h (1 Bft) W 16,7 C 19,6 C 2,8 km/h (1 Bft)
17.09.2023 22,6 C 73 % 1008,8 hPa 0,0 l/m 1,5 km/h (1 Bft) O-SO 16,9 C 22,6 C 3,1 km/h (1 Bft)
18.09.2023 19,1 C 85 % 1006,4 hPa 13,8 l/m 2,0 km/h (1 Bft) SO 16,5 C 19,1 C 3,8 km/h (1 Bft)
19.09.2023 18,6 C 78 % 1010,9 hPa 5,1 l/m 5,1 km/h (1 Bft) W 14,2 C 18,2 C 7,8 km/h (2 Bft)
20.09.2023 18,2 C 75 % 1007,9 hPa 0,0 l/m 1,5 km/h (1 Bft) S-SO 13,1 C 18,2 C 3,8 km/h (1 Bft)
21.09.2023 19,3 C 79 % 998,9 hPa 5,1 l/m 2,1 km/h (1 Bft) W 15,2 C 19,2 C 4,0 km/h (1 Bft)
22.09.2023 15,6 C 83 % 1001,2 hPa 7,5 l/m 4,9 km/h (1 Bft) S 12,5 C 15,3 C 7,5 km/h (2 Bft)
23.09.2023 13,1 C 84 % 1011,8 hPa 0,0 l/m 1,7 km/h (1 Bft) W 10,3 C 13,0 C 3,1 km/h (1 Bft)
24.09.2023 13,5 C 79 % 1019,8 hPa 0,0 l/m 1,1 km/h (1 Bft) O-SO 9,3 C 13,5 C 3,0 km/h (1 Bft)
25.09.2023 13,9 C 78 % 1018,1 hPa 0,0 l/m 1,4 km/h (1 Bft) NO 9,7 C 13,9 C 2,7 km/h (1 Bft)
26.09.2023 15,4 C 81 % 1016,9 hPa 0,0 l/m 1,0 km/h (0 Bft) O-SO 11,7 C 15,4 C 2,4 km/h (1 Bft)
27.09.2023 16,2 C 77 % 1015,2 hPa 0,0 l/m 1,3 km/h (1 Bft) N-NW 11,7 C 16,2 C 3,0 km/h (1 Bft)
28.09.2023 18,8 C 75 % 1013,8 hPa 0,0 l/m 1,0 km/h (0 Bft) W 13,7 C 18,8 C 2,2 km/h (1 Bft)
29.09.2023 19,3 C 76 % 1015,3 hPa 0,0 l/m 3,9 km/h (1 Bft) O 14,5 C 19,1 C 6,0 km/h (2 Bft)
30.09.2023 16,8 C 82 % 1019,9 hPa 0,0 l/m 0,9 km/h (0 Bft) W 13,4 C 16,8 C 1,9 km/h (1 Bft)
01.10.2023 16,7 C 81 % 1020,7 hPa 0,0 l/m 1,2 km/h (1 Bft) W-NW 12,9 C 16,7 C 3,2 km/h (1 Bft)
02.10.2023 18,7 C 77 % 1017,3 hPa 0,0 l/m 0,8 km/h (0 Bft) O-SO 13,9 C 18,7 C 2,5 km/h (1 Bft)
03.10.2023 19,3 C 74 % 1015,8 hPa 1,2 l/m 6,2 km/h (2 Bft) O-SO 13,9 C 18,8 C 10,0 km/h (2 Bft)
04.10.2023 13,9 C 84 % 1023,7 hPa 0,0 l/m 1,5 km/h (1 Bft) W 10,9 C 13,9 C 3,1 km/h (1 Bft)
05.10.2023 11,9 C 86 % 1022,1 hPa 0,0 l/m 1,0 km/h (0 Bft) N-NO 9,3 C 11,9 C 2,1 km/h (1 Bft)
06.10.2023 12,1 C 83 % 1021,8 hPa 0,0 l/m 0,6 km/h (0 Bft) NW 8,8 C 12,1 C 1,6 km/h (1 Bft)
07.10.2023 13,5 C 72 % 1021,8 hPa 0,0 l/m 0,7 km/h (0 Bft) S-SW 7,7 C 13,5 C 2,0 km/h (1 Bft)
08.10.2023 15,9 C 68 % 1021,4 hPa 0,0 l/m 0,4 km/h (0 Bft) SO 9,4 C 15,9 C 2,2 km/h (1 Bft)
09.10.2023 16,8 C 77 % 1018,4 hPa 0,0 l/m 1,2 km/h (1 Bft) O-NO 12,3 C 16,7 C 3,1 km/h (1 Bft)
10.10.2023 17,5 C 75 % 1016,1 hPa 0,0 l/m 1,0 km/h (0 Bft) S-SO 12,3 C 17,5 C 2,3 km/h (1 Bft)
11.10.2023 18,4 C 68 % 1014,8 hPa 0,0 l/m 3,0 km/h (1 Bft) W-SW 11,6 C 18,3 C 5,2 km/h (1 Bft)
12.10.2023 19,5 C 63 % 1012,8 hPa 0,0 l/m 4,5 km/h (1 Bft) N-NO 11,4 C 19,3 C 7,5 km/h (2 Bft)
13.10.2023 20,8 C 56 % 1010,1 hPa 0,0 l/m 3,3 km/h (1 Bft) NO 10,9 C 20,8 C 5,3 km/h (1 Bft)
14.10.2023 16,3 C 79 % 1010,1 hPa 6,3 l/m 6,2 km/h (2 Bft) W-SW 12,3 C 15,6 C 10,3 km/h (2 Bft)
15.10.2023 9,8 C 82 % 1016,1 hPa 0,3 l/m 1,3 km/h (1 Bft) NO 6,5 C 9,8 C 2,9 km/h (1 Bft)
16.10.2023 7,2 C 79 % 1015,0 hPa 0,0 l/m 1,1 km/h (1 Bft) W 3,3 C 7,2 C 2,9 km/h (1 Bft)
17.10.2023 4,1 C 90 % 1012,3 hPa 0,0 l/m 0,6 km/h (0 Bft) SO 2,5 C 4,1 C 1,6 km/h (1 Bft)
18.10.2023 7,8 C 87 % 1008,2 hPa 0,0 l/m 1,0 km/h (0 Bft) W-NW 5,4 C 7,8 C 2,9 km/h (1 Bft)
19.10.2023 11,1 C 96 % 997,5 hPa 3,6 l/m 0,7 km/h (0 Bft) W-NW 10,4 C 11,1 C 1,4 km/h (1 Bft)
20.10.2023 14,9 C 97 % 984,5 hPa 6,9 l/m 1,7 km/h (1 Bft) SW 14,3 C 14,8 C 3,4 km/h (1 Bft)
21.10.2023 15,1 C 79 % 988,1 hPa 1,8 l/m 6,7 km/h (2 Bft) W-SW 11,5 C 14,3 C 10,9 km/h (2 Bft)
22.10.2023 13,8 C 72 % 1003,0 hPa 0,0 l/m 5,1 km/h (1 Bft) S-SW 8,7 C 13,4 C 8,4 km/h (2 Bft)
23.10.2023 10,8 C 86 % 1007,0 hPa 0,0 l/m 1,5 km/h (1 Bft) O-SO 8,1 C 10,8 C 2,8 km/h (1 Bft)
24.10.2023 11,7 C 96 % 1002,4 hPa 15,3 l/m 1,3 km/h (1 Bft) SO 11,1 C 11,7 C 2,4 km/h (1 Bft)
25.10.2023 11,6 C 92 % 997,5 hPa 7,5 l/m 3,3 km/h (1 Bft) S-SW 10,2 C 11,1 C 5,9 km/h (2 Bft)
26.10.2023 12,9 C 93 % 994,2 hPa 12,9 l/m 3,8 km/h (1 Bft) W-SW 11,7 C 12,4 C 6,4 km/h (2 Bft)
27.10.2023 11,4 C 91 % 993,5 hPa 9,9 l/m 5,3 km/h (1 Bft) W-SW 9,9 C 10,5 C 8,4 km/h (2 Bft)
28.10.2023 12,6 C 77 % 998,8 hPa 1,2 l/m 5,3 km/h (1 Bft) W 8,7 C 11,9 C 8,2 km/h (2 Bft)
29.10.2023 14,5 C 78 % 997,5 hPa 0,0 l/m 2,4 km/h (1 Bft) SO 10,3 C 14,5 C 4,4 km/h (1 Bft)
30.10.2023 12,8 C 94 % 998,5 hPa 9,6 l/m 1,5 km/h (1 Bft) NW 11,9 C 12,7 C 3,1 km/h (1 Bft)
31.10.2023 11,8 C 86 % 1002,9 hPa 3,0 l/m 7,5 km/h (2 Bft) W-SW 9,6 C 10,7 C 11,9 km/h (2 Bft)
01.11.2023 11,9 C 78 % 1002,7 hPa 0,0 l/m 3,2 km/h (1 Bft) S-SO 7,9 C 11,7 C 5,4 km/h (1 Bft)
02.11.2023 11,1 C 77 % 987,4 hPa 5,4 l/m 6,4 km/h (2 Bft) S-SO 7,2 C 10,0 C 10,7 km/h (2 Bft)
03.11.2023 7,8 C 83 % 987,3 hPa 0,0 l/m 5,4 km/h (1 Bft) W-SW 5,1 C 7,0 C 8,3 km/h (2 Bft)
04.11.2023 10,6 C 72 % 984,6 hPa 0,9 l/m 9,2 km/h (2 Bft) W-SW 5,7 C 8,8 C 14,2 km/h (3 Bft)
05.11.2023 12,3 C 73 % 984,3 hPa 0,6 l/m 13,4 km/h (3 Bft) W-SW 7,6 C 8,8 C 20,9 km/h (4 Bft)
06.11.2023 11,2 C 78 % 1003,7 hPa 0,6 l/m 9,6 km/h (2 Bft) W-SW 7,6 C 9,2 C 14,2 km/h (3 Bft)
07.11.2023 9,1 C 81 % 1011,0 hPa 2,1 l/m 6,0 km/h (2 Bft) W-SW 6,0 C 8,4 C 9,8 km/h (2 Bft)
08.11.2023 8,5 C 81 % 1013,3 hPa 0,0 l/m 4,3 km/h (1 Bft) SW 5,4 C 8,1 C 7,4 km/h (2 Bft)
09.11.2023 8,0 C 84 % 1004,8 hPa 0,3 l/m 4,5 km/h (1 Bft) SO 5,3 C 7,3 C 7,2 km/h (2 Bft)
10.11.2023 9,2 C 79 % 999,8 hPa 4,8 l/m 9,5 km/h (2 Bft) SW 5,6 C 7,2 C 14,9 km/h (3 Bft)
11.11.2023 7,3 C 88 % 1003,9 hPa 6,3 l/m 5,7 km/h (1 Bft) SW 5,4 C 6,2 C 8,9 km/h (2 Bft)
12.11.2023 5,8 C 97 % 1003,8 hPa 5,4 l/m 1,2 km/h (1 Bft) SO 5,3 C 5,6 C 2,4 km/h (1 Bft)
13.11.2023 14,2 C 87 % 1006,4 hPa 12,9 l/m 11,9 km/h (2 Bft) S-SW 12,1 C 11,5 C 18,3 km/h (3 Bft)
14.11.2023 11,4 C 90 % 1007,7 hPa 26,4 l/m 6,6 km/h (2 Bft) SW 9,7 C 10,3 C 10,7 km/h (2 Bft)
15.11.2023 10,9 C 84 % 1014,8 hPa 0,0 l/m 6,9 km/h (2 Bft) SW 8,3 C 10,1 C 10,7 km/h (2 Bft)
16.11.2023 8,6 C 92 % 1008,4 hPa 16,8 l/m 4,0 km/h (1 Bft) SW 7,3 C 8,1 C 6,7 km/h (2 Bft)
17.11.2023 6,4 C 99 % 1015,4 hPa 17,4 l/m 1,1 km/h (1 Bft) SO 6,3 C 6,4 C 2,5 km/h (1 Bft)
18.11.2023 6,4 C 94 % 1019,3 hPa 6,3 l/m 1,7 km/h (1 Bft) SO 5,4 C 6,4 C 3,0 km/h (1 Bft)
19.11.2023 13,1 C 88 % 1012,6 hPa 7,8 l/m 10,0 km/h (2 Bft) SW 11,1 C 11,0 C 16,2 km/h (3 Bft)
20.11.2023 11,6 C 80 % 1010,4 hPa 0,0 l/m 10,8 km/h (2 Bft) W-SW 8,1 C 9,1 C 16,1 km/h (3 Bft)
21.11.2023 8,4 C 95 % 1009,4 hPa 7,8 l/m 2,1 km/h (1 Bft) W 7,7 C 8,3 C 3,9 km/h (1 Bft)
22.11.2023 4,7 C 91 % 1020,1 hPa 0,3 l/m 1,5 km/h (1 Bft) N-NO 3,4 C 4,7 C 3,1 km/h (1 Bft)
23.11.2023 3,1 C 89 % 1022,2 hPa 0,0 l/m 0,9 km/h (0 Bft) W 1,3 C 3,1 C 2,1 km/h (1 Bft)
24.11.2023 6,6 C 88 % 1009,7 hPa 5,1 l/m 6,5 km/h (2 Bft) W-SW 4,7 C 5,4 C 10,9 km/h (2 Bft)
25.11.2023 3,7 C 84 % 1009,4 hPa 5,4 l/m 3,3 km/h (1 Bft) W 1,3 C 3,7 C 5,9 km/h (2 Bft)
26.11.2023 3,3 C 93 % 1012,9 hPa 2,4 l/m 2,5 km/h (1 Bft) W-SW 2,2 C 3,3 C 4,0 km/h (1 Bft)
27.11.2023 2,8 C 90 % 1001,4 hPa 31,8 l/m 6,3 km/h (2 Bft) SW 1,2 C 1,2 C 10,1 km/h (2 Bft)
28.11.2023 3,5 C 94 % 997,3 hPa 23,1 l/m 3,5 km/h (1 Bft) W-SW 2,6 C 2,8 C 6,0 km/h (2 Bft)
29.11.2023 1,6 C 86 % 1002,7 hPa 0,0 l/m 3,3 km/h (1 Bft) W-SW -0,6 C 1,1 C 5,2 km/h (1 Bft)
30.11.2023 9,1 C 94 % 1001,9 hPa 16,2 l/m 1,9 km/h (1 Bft) SO 8,2 C 9,0 C 4,0 km/h (1 Bft)
01.12.2023 0,0 C 1 % 1012,1 hPa 0,0 l/m 0,0 km/h (0 Bft) N -53,4 C 0,0 C 0,3 km/h (0 Bft)
02.12.2023 3,2 C 7 % 955,9 hPa 0,0 l/m 2,1 km/h (1 Bft) NW -44,3 C 2,8 C 1,4 km/h (1 Bft)
03.12.2023 19,6 C 28 % 1003,0 hPa 0,0 l/m 10,0 km/h (2 Bft) NW -10,8 C 17,6 C 0,0 km/h (0 Bft)
06.12.2023 3,2 C 97 % 1012,6 hPa 0,0 l/m 0,0 km/h (0 Bft) SW 2,9 C 3,2 C 0,4 km/h (0 Bft)
07.12.2023 0,6 C 96 % 1013,7 hPa 0,0 l/m 0,6 km/h (0 Bft) W 0,1 C 0,6 C 1,6 km/h (1 Bft)
08.12.2023 5,4 C 97 % 1006,9 hPa 5,7 l/m 1,0 km/h (0 Bft) W 4,9 C 5,3 C 2,4 km/h (1 Bft)
09.12.2023 8,0 C 91 % 1007,6 hPa 6,0 l/m 4,0 km/h (1 Bft) SW 6,5 C 7,3 C 6,6 km/h (2 Bft)
10.12.2023 9,5 C 78 % 1008,1 hPa 1,2 l/m 8,3 km/h (2 Bft) W-SW 5,7 C 7,8 C 12,9 km/h (3 Bft)
11.12.2023 11,2 C 87 % 1004,1 hPa 0,6 l/m 7,1 km/h (2 Bft) W-SW 9,1 C 10,1 C 11,2 km/h (2 Bft)
12.12.2023 10,1 C 94 % 1000,7 hPa 17,4 l/m 5,1 km/h (1 Bft) SO 9,1 C 9,1 C 8,5 km/h (2 Bft)
13.12.2023 8,9 C 91 % 995,0 hPa 8,4 l/m 5,3 km/h (1 Bft) W-SW 7,5 C 8,1 C 8,6 km/h (2 Bft)
14.12.2023 6,7 C 97 % 1009,7 hPa 7,2 l/m 1,2 km/h (1 Bft) W-SW 6,3 C 6,7 C 2,6 km/h (1 Bft)
15.12.2023 5,4 C 95 % 1026,8 hPa 0,3 l/m 0,2 km/h (0 Bft) SO 4,5 C 5,4 C 0,6 km/h (0 Bft)
16.12.2023 4,3 C 93 % 1032,4 hPa 0,0 l/m 0,9 km/h (0 Bft) SO 3,1 C 4,3 C 2,3 km/h (1 Bft)
17.12.2023 -0,3 C 99 % 1031,2 hPa 0,0 l/m 0,2 km/h (0 Bft) W -0,4 C -0,3 C 0,8 km/h (0 Bft)
18.12.2023 1,5 C 92 % 1026,7 hPa 0,3 l/m 0,5 km/h (0 Bft) W 0,3 C 1,5 C 1,5 km/h (1 Bft)
19.12.2023 3,1 C 84 % 1018,9 hPa 0,0 l/m 2,9 km/h (1 Bft) W 0,5 C 2,5 C 5,0 km/h (1 Bft)
20.12.2023 6,1 C 87 % 1013,8 hPa 8,4 l/m 5,9 km/h (2 Bft) W-SW 4,0 C 5,1 C 9,8 km/h (2 Bft)
21.12.2023 8,4 C 86 % 1004,4 hPa 0,0 l/m 15,0 km/h (3 Bft) W-SW 6,1 C 3,3 C 22,8 km/h (4 Bft)
22.12.2023 8,1 C 93 % 1004,4 hPa 7,8 l/m 9,8 km/h (2 Bft) W-SW 7,1 C 5,6 C 14,5 km/h (3 Bft)
23.12.2023 8,1 C 87 % 1011,1 hPa 0,9 l/m 15,4 km/h (3 Bft) W-SW 5,9 C 2,7 C 22,1 km/h (4 Bft)
24.12.2023 10,3 C 75 % 1010,8 hPa 0,0 l/m 15,3 km/h (3 Bft) W-SW 6,0 C 5,5 C 23,2 km/h (4 Bft)
25.12.2023 10,2 C 68 % 1009,6 hPa 0,0 l/m 13,3 km/h (3 Bft) W-SW 4,4 C 6,3 C 20,5 km/h (4 Bft)
26.12.2023 8,5 C 79 % 1012,0 hPa 0,0 l/m 9,5 km/h (2 Bft) W-SW 5,0 C 6,1 C 14,5 km/h (3 Bft)
27.12.2023 5,7 C 86 % 1012,4 hPa 0,0 l/m 1,3 km/h (1 Bft) SO 3,2 C 5,7 C 2,9 km/h (1 Bft)
28.12.2023 11,0 C 64 % 1012,3 hPa 1,8 l/m 7,8 km/h (2 Bft) SW 4,0 C 9,7 C 12,4 km/h (3 Bft)
29.12.2023 10,8 C 80 % 1010,4 hPa 0,0 l/m 10,9 km/h (2 Bft) W-SW 7,5 C 8,0 C 16,6 km/h (3 Bft)
30.12.2023 8,8 C 83 % 1009,1 hPa 0,0 l/m 6,0 km/h (2 Bft) W-SW 5,9 C 7,7 C 9,4 km/h (2 Bft)
31.12.2023 6,1 C 86 % 1001,0 hPa 2,4 l/m 4,4 km/h (1 Bft) S-SW 3,8 C 5,3 C 7,3 km/h (2 Bft)
Min-Datum 08.02.23 07.05.23 02.12.23 157 Tage 01.01.23 - 07.05.23 08.02.23 02.01.23
Min-Zeit 08:37 03:15 16:25 - 07:47 - 03:15 08:37 04:47
Minimum -6,4 C 0 % 650,0 hPa - 0,0 km/h (0 Bft) - -60,0 C -6,4 C 0,0 km/h (0 Bft)
Max-Datum 02.12.23 03.01.23 31.07.23 27.11.23 10.03.23 - 02.12.23 02.12.23 10.03.23
Max-Zeit 16:42 08:47 13:21 16:35 15:37 - 16:42 16:42 15:37
Maximum 80,0 C 99 % 1100,0 hPa 31,8 l/m 29,5 km/h
SW (5 Bft)
- 67,9 C 80,0 C 51,5 km/h
SW (7 Bft)
Durchschnitt 12,4 C 77 % 1011,2 hPa #922,5 l/m 3,9 km/h (1 Bft) W-SW 7,9 C 11,8 C 6,5 km/h (2 Bft)

Durchschnitt Minimum Temp.7,6 C
Durchschnitt Maximum Temp.18,0 C

Jahr Standard-Abweichung:   + 12,42 K
Jahr Normal Wert:    0,00 C
Eistage (Tmax < 0C) :0
Frosttage (Tmin < 0C) :50
Kalte Tage (Tmax < 10C) :78
Sommertage (Tmax >= 25C) :105
Heie Tage (Tmax >= 30C) :35

Regen Tage
> 0,0 l/m157
> 2,0 l/m100
> 20,0 l/m7
Jahr Standard-Abweichung:   + 922,5 l/m
Jahr Normal Wert:    0,0 l/m

VerteilungWindrichtung
Windstille28,8 %
N-NO4,9 %
NO5,3 %
O-NO3,8 %
O3,3 %
O-SO5,8 %
SO5,8 %
S-SO2,5 %
S2,8 %
S-SW6,6 %
SW12,6 %
W-SW18,7 %
W14,8 %
W-NW4,7 %
NW3,9 %
N-NW2,0 %
N2,5 %
www.sexauwetter.de